createdAt,value
2018-01-11T00:01:23.116Z,7.00
2018-01-11T00:03:50.135Z,7.20
2018-01-11T00:06:16.436Z,7.20
2018-01-11T00:08:42.854Z,7.00
2018-01-11T00:11:09.183Z,7.20
2018-01-11T00:13:35.603Z,7.60
2018-01-11T00:16:03.010Z,7.30
2018-01-11T00:18:29.839Z,7.20
2018-01-11T00:20:56.348Z,7.30
2018-01-11T00:23:23.046Z,7.10
2018-01-11T00:25:50.420Z,7.20
2018-01-11T00:28:17.873Z,7.20
2018-01-11T00:30:44.976Z,7.40
2018-01-11T00:33:12.126Z,7.20
2018-01-11T00:35:39.111Z,7.20
2018-01-11T00:38:05.407Z,7.10
2018-01-11T00:40:31.707Z,7.10
2018-01-11T00:42:58.023Z,7.20
2018-01-11T00:45:24.331Z,7.20
2018-01-11T00:47:50.611Z,7.70
2018-01-11T00:50:16.898Z,7.40
2018-01-11T00:52:43.958Z,7.00
2018-01-11T00:55:10.275Z,7.20
2018-01-11T00:57:36.636Z,7.30
2018-01-11T01:00:02.976Z,7.30
2018-01-11T01:02:29.995Z,7.10
2018-01-11T01:04:56.327Z,7.70
2018-01-11T01:07:23.558Z,7.30
2018-01-11T01:09:49.875Z,7.10
2018-01-11T01:12:16.275Z,7.40
2018-01-11T01:14:42.563Z,7.40
2018-01-11T01:17:08.846Z,7.30
2018-01-11T01:19:35.984Z,7.20
2018-01-11T01:22:02.270Z,7.30
2018-01-11T01:24:28.575Z,7.20
2018-01-11T01:26:54.909Z,7.20
2018-01-11T01:29:21.199Z,7.30
2018-01-11T01:31:47.473Z,7.20
2018-01-11T01:34:13.786Z,7.20
2018-01-11T01:36:40.083Z,7.30
2018-01-11T01:39:07.112Z,7.00
2018-01-11T01:41:34.179Z,7.20
2018-01-11T01:44:00.466Z,7.40
2018-01-11T01:46:27.487Z,7.20
2018-01-11T01:48:54.540Z,7.20
2018-01-11T01:51:20.827Z,7.30
2018-01-11T01:53:47.094Z,7.30
2018-01-11T01:56:14.158Z,7.20
2018-01-11T01:58:40.445Z,7.30
2018-01-11T02:01:07.454Z,7.20
2018-01-11T02:03:33.799Z,7.30
2018-01-11T02:06:03.920Z,7.10
2018-01-11T02:08:30.227Z,7.20
2018-01-11T02:10:56.577Z,7.20
2018-01-11T02:13:22.854Z,7.10
2018-01-11T02:15:49.135Z,7.30
2018-01-11T02:18:15.446Z,7.10
2018-01-11T02:20:41.714Z,7.30
2018-01-11T02:23:07.998Z,7.10
2018-01-11T02:25:34.299Z,7.40
2018-01-11T02:28:00.598Z,7.40
2018-01-11T02:30:27.660Z,7.50
2018-01-11T02:32:56.795Z,7.40
2018-01-11T02:35:23.072Z,7.10
2018-01-11T02:37:49.347Z,7.30
2018-01-11T02:40:16.377Z,7.20
2018-01-11T02:42:43.394Z,7.30
2018-01-11T02:45:09.693Z,7.10
2018-01-11T02:47:35.996Z,7.20
2018-01-11T02:50:02.306Z,7.30
2018-01-11T02:52:28.596Z,7.30
2018-01-11T02:54:54.966Z,7.20
2018-01-11T02:57:21.243Z,7.10
2018-01-11T02:59:47.537Z,7.10
2018-01-11T03:02:13.859Z,6.90
2018-01-11T03:04:40.139Z,7.10
2018-01-11T03:07:07.163Z,7.10
2018-01-11T03:09:33.458Z,7.10
2018-01-11T03:11:59.734Z,7.20
2018-01-11T03:14:26.757Z,7.00
2018-01-11T03:16:53.062Z,7.20
2018-01-11T03:19:20.109Z,7.10
2018-01-11T03:21:46.384Z,7.10
2018-01-11T03:24:12.674Z,7.10
2018-01-11T03:26:38.948Z,7.40
2018-01-11T03:29:05.229Z,7.10
2018-01-11T03:31:31.520Z,7.10
2018-01-11T03:33:57.827Z,7.20
2018-01-11T03:36:24.122Z,7.00
2018-01-11T03:38:50.454Z,7.20
2018-01-11T03:41:19.165Z,7.30
2018-01-11T03:43:45.449Z,7.30
2018-01-11T03:46:11.752Z,7.10
2018-01-11T03:48:38.018Z,7.30
2018-01-11T03:51:05.099Z,7.30
2018-01-11T03:53:31.410Z,7.20
2018-01-11T03:55:57.688Z,7.10
2018-01-11T03:58:24.700Z,7.00
2018-01-11T04:00:51.023Z,7.10
2018-01-11T04:03:17.315Z,7.20
2018-01-11T04:05:43.636Z,7.10
2018-01-11T04:08:09.940Z,7.10
2018-01-11T04:10:36.218Z,7.10
2018-01-11T04:13:02.488Z,7.10
2018-01-11T04:15:28.795Z,7.20
2018-01-11T04:17:55.119Z,7.20
2018-01-11T04:20:21.412Z,7.10
2018-01-11T04:22:47.708Z,7.30
2018-01-11T04:25:13.998Z,7.10
2018-01-11T04:27:41.084Z,7.30
2018-01-11T04:30:07.415Z,7.20
2018-01-11T04:32:33.701Z,7.20
2018-01-11T04:34:59.970Z,7.00
2018-01-11T04:37:27.023Z,7.20
2018-01-11T04:39:53.290Z,7.20
2018-01-11T04:42:19.565Z,7.20
2018-01-11T04:44:45.859Z,7.10
2018-01-11T04:47:12.870Z,7.10
2018-01-11T04:49:39.159Z,7.50
2018-01-11T04:52:05.475Z,7.20
2018-01-11T04:54:31.768Z,7.10
2018-01-11T04:56:58.054Z,7.20
2018-01-11T04:59:24.380Z,7.10
2018-01-11T05:01:50.705Z,7.20
2018-01-11T05:04:16.976Z,7.10
2018-01-11T05:06:43.263Z,7.10
2018-01-11T05:09:09.574Z,6.60
2018-01-11T05:11:35.856Z,7.10
2018-01-11T05:14:02.160Z,7.20
2018-01-11T05:16:28.431Z,7.20
2018-01-11T05:18:54.738Z,7.10
2018-01-11T05:21:21.075Z,7.10
2018-01-11T05:23:47.353Z,7.30
2018-01-11T05:26:13.650Z,6.90
2018-01-11T05:28:39.961Z,7.00
2018-01-11T05:31:06.279Z,6.80
2018-01-11T05:33:32.563Z,6.90
2018-01-11T05:35:58.855Z,7.40
2018-01-11T05:38:25.136Z,6.80
2018-01-11T05:40:51.430Z,6.80
2018-01-11T05:43:18.480Z,6.80
2018-01-11T05:45:44.754Z,6.80
2018-01-11T05:48:11.778Z,6.80
2018-01-11T05:50:38.071Z,6.60
2018-01-11T05:53:04.416Z,6.50
2018-01-11T05:55:30.711Z,6.60
2018-01-11T05:57:57.021Z,6.60
2018-01-11T06:00:23.310Z,6.50
2018-01-11T06:02:49.656Z,6.80
2018-01-11T06:05:17.798Z,7.20
2018-01-11T06:07:44.106Z,6.10
2018-01-11T06:10:10.395Z,6.60
2018-01-11T06:12:36.686Z,6.60
2018-01-11T06:15:02.966Z,6.60
2018-01-11T06:17:29.243Z,6.70
2018-01-11T06:19:55.550Z,6.70
2018-01-11T06:22:21.840Z,6.70
2018-01-11T06:24:48.115Z,6.60
2018-01-11T06:27:14.421Z,6.90
2018-01-11T06:29:40.775Z,6.60
2018-01-11T06:32:07.054Z,6.50
2018-01-11T06:34:33.392Z,6.60
2018-01-11T06:36:59.683Z,6.80
2018-01-11T06:39:25.974Z,6.60
2018-01-11T06:41:53.007Z,6.60
2018-01-11T06:44:19.288Z,6.80
2018-01-11T06:46:45.567Z,6.60
2018-01-11T06:49:11.884Z,6.50
2018-01-11T06:51:38.212Z,6.50
2018-01-11T06:54:04.486Z,5.80
2018-01-11T06:56:31.526Z,6.20
2018-01-11T06:58:57.819Z,6.40
2018-01-11T07:01:24.842Z,6.20
2018-01-11T07:03:51.172Z,6.50
2018-01-11T07:06:18.210Z,6.50
2018-01-11T07:08:45.242Z,6.40
2018-01-11T07:11:12.311Z,6.40
2018-01-11T07:13:38.607Z,6.40
2018-01-11T07:16:04.896Z,6.70
2018-01-11T07:18:31.940Z,6.60
2018-01-11T07:20:58.237Z,6.60
2018-01-11T07:23:24.516Z,6.70
2018-01-11T07:25:50.827Z,6.70
2018-01-11T07:28:17.201Z,6.50
2018-01-11T07:30:44.203Z,6.60
2018-01-11T07:33:10.503Z,6.60
2018-01-11T07:35:36.834Z,6.50
2018-01-11T07:38:03.124Z,7.00
2018-01-11T07:40:29.423Z,6.80
2018-01-11T07:42:55.695Z,6.70
2018-01-11T07:45:21.978Z,6.80
2018-01-11T07:47:48.294Z,6.70
2018-01-11T07:50:14.571Z,6.80
2018-01-11T07:52:40.846Z,6.50
2018-01-11T07:55:07.164Z,6.90
2018-01-11T07:57:33.434Z,6.80
2018-01-11T07:59:59.706Z,6.90
2018-01-11T08:02:26.764Z,6.90
2018-01-11T08:04:53.064Z,7.00
2018-01-11T08:07:20.095Z,6.90
2018-01-11T08:09:47.158Z,7.30
2018-01-11T08:12:13.466Z,7.10
2018-01-11T08:14:39.765Z,6.50
2018-01-11T08:17:06.259Z,6.80
2018-01-11T08:19:32.535Z,7.20
2018-01-11T08:21:58.843Z,7.40
2018-01-11T08:24:25.155Z,7.30
2018-01-11T08:26:51.503Z,7.30
2018-01-11T08:29:17.783Z,7.30
2018-01-11T08:31:44.159Z,7.40
2018-01-11T08:34:10.460Z,7.30
2018-01-11T08:36:36.734Z,7.30
2018-01-11T08:39:03.112Z,7.70
2018-01-11T08:41:30.141Z,7.50
2018-01-11T08:43:56.427Z,7.50
2018-01-11T08:46:22.754Z,7.50
2018-01-11T08:48:49.054Z,7.30
2018-01-11T08:51:15.339Z,7.40
2018-01-11T08:53:41.707Z,7.60
2018-01-11T08:56:08.079Z,7.50
2018-01-11T08:58:34.379Z,7.40
2018-01-11T09:01:00.677Z,7.60
2018-01-11T09:03:27.759Z,8.00
2018-01-11T09:05:54.056Z,7.90
2018-01-11T09:11:13.364Z,7.80
2018-01-11T09:13:39.712Z,8.10
2018-01-11T09:16:06.205Z,8.60
2018-01-11T09:18:32.562Z,8.50
2018-01-11T09:20:58.970Z,8.60
2018-01-11T09:23:25.976Z,8.50
2018-01-11T09:25:52.440Z,8.50
2018-01-11T09:28:18.812Z,8.60
2018-01-11T09:30:45.155Z,8.50
2018-01-11T09:33:11.449Z,8.40
2018-01-11T09:35:37.777Z,8.40
2018-01-11T09:38:04.085Z,8.40
2018-01-11T09:40:30.470Z,8.60
2018-01-11T09:42:57.459Z,8.70
2018-01-11T09:45:23.918Z,8.80
2018-01-11T09:47:51.008Z,9.20
2018-01-11T09:50:17.319Z,8.70
2018-01-11T09:52:44.419Z,9.00
2018-01-11T09:55:10.885Z,9.00
2018-01-11T09:57:37.519Z,8.90
2018-01-11T10:00:04.555Z,9.00
2018-01-11T10:02:31.474Z,8.90
2018-01-11T10:04:58.587Z,8.90
2018-01-11T10:07:24.880Z,9.00
2018-01-11T10:09:51.191Z,8.80
2018-01-11T10:12:17.467Z,8.70
2018-01-11T10:14:43.764Z,8.90
2018-01-11T10:17:10.064Z,8.60
2018-01-11T10:19:36.364Z,8.60
2018-01-11T10:22:09.392Z,8.60
2018-01-11T10:24:36.673Z,8.60
2018-01-11T10:27:03.145Z,8.70
2018-01-11T10:29:29.839Z,8.60
2018-01-11T10:31:56.162Z,8.80
2018-01-11T10:34:22.446Z,8.60
2018-01-11T10:36:48.736Z,8.70
2018-01-11T10:39:15.148Z,8.90
2018-01-11T10:41:42.184Z,8.60
2018-01-11T10:44:09.237Z,8.60
2018-01-11T10:46:36.126Z,8.70
2018-01-11T10:49:02.985Z,8.80
2018-01-11T10:51:29.255Z,8.70
2018-01-11T10:53:56.042Z,8.70
2018-01-11T10:56:22.894Z,8.90
2018-01-11T10:58:49.628Z,9.30
2018-01-11T11:01:23.927Z,9.00
2018-01-11T11:03:50.795Z,9.20
2018-01-11T11:06:18.397Z,8.90
2018-01-11T11:08:45.128Z,9.00
2018-01-11T11:11:11.422Z,9.20
2018-01-11T11:13:38.269Z,9.20
2018-01-11T11:16:04.999Z,9.00
2018-01-11T11:18:31.458Z,9.00
2018-01-11T11:20:58.260Z,9.10
2018-01-11T11:23:24.854Z,9.20
2018-01-11T11:25:51.143Z,9.20
2018-01-11T11:28:17.616Z,9.00
2018-01-11T11:30:44.279Z,9.10
2018-01-11T11:33:10.566Z,8.70
2018-01-11T11:35:36.832Z,8.80
2018-01-11T11:38:03.967Z,8.80
2018-01-11T11:40:30.822Z,9.00
2018-01-11T11:42:57.121Z,9.00
2018-01-11T11:45:23.957Z,8.80
2018-01-11T11:47:51.136Z,8.70
2018-01-11T11:50:18.478Z,8.80
2018-01-11T11:52:46.345Z,8.60
2018-01-11T11:55:12.722Z,8.70
2018-01-11T11:57:39.057Z,8.80
2018-01-11T12:00:05.419Z,8.90
2018-01-11T12:02:31.790Z,9.30
2018-01-11T12:04:58.847Z,8.50
2018-01-11T12:07:25.906Z,8.70
2018-01-11T12:09:52.214Z,8.50
2018-01-11T12:12:18.506Z,8.40
2018-01-11T12:14:44.818Z,8.60
2018-01-11T12:17:11.904Z,8.30
2018-01-11T12:19:38.244Z,8.60
2018-01-11T12:22:04.560Z,8.60
2018-01-11T12:24:30.831Z,8.70
2018-01-11T12:26:57.104Z,8.50
2018-01-11T12:29:24.168Z,8.70
2018-01-11T12:31:50.431Z,8.70
2018-01-11T12:34:16.716Z,8.80
2018-01-11T12:36:43.031Z,9.00
2018-01-11T12:39:09.307Z,8.90
2018-01-11T12:41:35.596Z,9.20
2018-01-11T12:44:02.009Z,9.00
2018-01-11T12:46:28.411Z,9.00
2018-01-11T12:48:55.095Z,9.00
2018-01-11T12:51:21.899Z,9.00
2018-01-11T12:53:48.923Z,9.00
2018-01-11T12:56:16.602Z,9.20
2018-01-11T12:58:42.923Z,9.00
2018-01-11T13:01:09.203Z,9.10
2018-01-11T13:03:35.492Z,9.10
2018-01-11T13:06:01.819Z,9.20
2018-01-11T13:08:28.868Z,9.30
2018-01-11T13:10:55.898Z,9.40
2018-01-11T13:13:22.319Z,9.50
2018-01-11T13:15:49.339Z,9.60
2018-01-11T13:18:15.626Z,9.50
2018-01-11T13:20:41.990Z,9.60
2018-01-11T13:23:09.022Z,9.50
2018-01-11T13:25:35.315Z,9.30
2018-01-11T13:28:01.623Z,9.40
2018-01-11T13:30:27.991Z,9.60
2018-01-11T13:32:54.270Z,9.30
2018-01-11T13:35:20.577Z,9.50
2018-01-11T13:37:46.848Z,9.50
2018-01-11T13:40:13.131Z,9.30
2018-01-11T13:42:40.188Z,9.40
2018-01-11T13:45:06.603Z,9.20
2018-01-11T13:47:32.871Z,9.20
2018-01-11T13:49:59.183Z,9.20
2018-01-11T13:52:26.099Z,9.00
2018-01-11T13:54:52.838Z,9.20
2018-01-11T13:57:19.172Z,9.30
2018-01-11T13:59:46.757Z,9.30
2018-01-11T14:02:13.547Z,9.20
2018-01-11T14:04:40.865Z,9.30
2018-01-11T14:07:07.197Z,9.20
2018-01-11T14:09:34.779Z,9.50
2018-01-11T14:12:01.540Z,9.40
2018-01-11T14:14:28.235Z,9.30
2018-01-11T14:16:55.395Z,9.30
2018-01-11T14:19:22.529Z,9.20
2018-01-11T14:21:48.896Z,9.30
2018-01-11T14:24:16.532Z,9.20
2018-01-11T14:26:44.257Z,9.20
2018-01-11T14:29:11.152Z,9.30
2018-01-11T14:31:38.322Z,9.40
2018-01-11T14:34:04.867Z,9.60
2018-01-11T14:36:31.996Z,9.50
2018-01-11T14:38:58.667Z,9.20
2018-01-11T14:41:24.981Z,9.10
2018-01-11T14:43:51.737Z,9.20
2018-01-11T14:46:18.534Z,9.20
2018-01-11T14:48:46.174Z,9.10
2018-01-11T14:51:12.706Z,9.20
2018-01-11T14:53:40.025Z,9.30
2018-01-11T14:56:06.347Z,9.30
2018-01-11T14:58:33.139Z,9.00
2018-01-11T15:01:00.465Z,9.10
2018-01-11T15:03:26.810Z,9.00
2018-01-11T15:05:54.565Z,9.20
2018-01-11T15:08:22.070Z,9.00
2018-01-11T15:10:48.800Z,8.80
2018-01-11T15:13:16.254Z,8.90
2018-01-11T15:15:43.028Z,9.10
2018-01-11T15:18:09.394Z,8.90
2018-01-11T15:20:35.957Z,8.80
2018-01-11T15:23:03.414Z,9.00
2018-01-11T15:25:29.900Z,8.80
2018-01-11T15:27:56.682Z,8.70
2018-01-11T15:30:22.951Z,8.60
2018-01-11T15:32:49.759Z,8.50
2018-01-11T15:35:17.386Z,8.40
2018-01-11T15:37:44.092Z,8.40
2018-01-11T15:40:10.770Z,8.40
2018-01-11T15:42:38.052Z,8.30
2018-01-11T15:45:04.897Z,8.50
2018-01-11T15:47:31.955Z,8.30
2018-01-11T15:49:59.442Z,8.20
2018-01-11T15:52:25.807Z,8.30
2018-01-11T15:54:52.314Z,8.20
2018-01-11T15:57:18.846Z,8.00
2018-01-11T15:59:45.124Z,8.10
2018-01-11T16:02:11.513Z,8.10
2018-01-11T16:04:38.285Z,8.10
2018-01-11T16:07:04.727Z,8.10
2018-01-11T16:09:31.227Z,7.80
2018-01-11T16:11:58.163Z,8.00
2018-01-11T16:14:24.617Z,8.60
2018-01-11T16:16:51.008Z,7.80
2018-01-11T16:19:17.329Z,7.90
2018-01-11T16:21:44.036Z,7.80
2018-01-11T16:24:10.546Z,7.90
2018-01-11T16:26:37.041Z,8.10
2018-01-11T16:29:04.205Z,7.80
2018-01-11T16:31:30.550Z,7.70
2018-01-11T16:33:56.856Z,7.80
2018-01-11T16:36:23.469Z,7.90
2018-01-11T16:38:50.040Z,8.00
2018-01-11T16:41:16.380Z,7.80
2018-01-11T16:43:42.973Z,7.70
2018-01-11T16:46:09.471Z,7.60
2018-01-11T16:48:35.805Z,7.70
2018-01-11T16:51:02.260Z,7.70
2018-01-11T16:53:28.796Z,8.00
2018-01-11T16:55:55.218Z,7.60
2018-01-11T16:58:21.670Z,7.60
2018-01-11T17:00:48.092Z,7.80
2018-01-11T17:03:15.302Z,7.70
2018-01-11T17:05:41.692Z,7.60
2018-01-11T17:08:09.212Z,7.90
2018-01-11T17:10:35.888Z,7.70
2018-01-11T17:13:02.522Z,7.70
2018-01-11T17:15:29.089Z,7.80
2018-01-11T17:17:55.416Z,7.70
2018-01-11T17:20:21.755Z,7.60
2018-01-11T17:22:48.235Z,7.60
2018-01-11T17:25:14.783Z,7.80
2018-01-11T17:27:41.306Z,7.70
2018-01-11T17:30:07.896Z,7.70
2018-01-11T17:32:34.317Z,7.90
2018-01-11T17:35:00.619Z,7.70
2018-01-11T17:37:27.671Z,7.80
2018-01-11T17:39:53.955Z,7.70
2018-01-11T17:42:20.985Z,7.70
2018-01-11T17:44:48.083Z,7.70
2018-01-11T17:47:14.355Z,7.60
2018-01-11T17:49:40.632Z,7.80
2018-01-11T17:52:06.968Z,8.00
2018-01-11T17:54:33.971Z,7.90
2018-01-11T17:57:00.247Z,7.70
2018-01-11T17:59:26.558Z,7.70
2018-01-11T18:01:53.019Z,7.70
2018-01-11T18:04:19.370Z,7.70
2018-01-11T18:06:46.477Z,7.80
2018-01-11T18:09:12.775Z,7.70
2018-01-11T18:11:39.207Z,7.80
2018-01-11T18:14:05.523Z,7.40
2018-01-11T18:16:32.075Z,7.90
2018-01-11T18:18:58.590Z,7.70
2018-01-11T18:21:26.189Z,7.50
2018-01-11T18:23:52.841Z,7.50
2018-01-11T18:26:19.892Z,7.60
2018-01-11T18:28:46.391Z,7.60
2018-01-11T18:31:12.972Z,7.50
2018-01-11T18:33:39.754Z,7.70
2018-01-11T18:36:06.070Z,7.60
2018-01-11T18:38:32.350Z,7.70
2018-01-11T18:40:58.719Z,7.50
2018-01-11T18:43:25.775Z,7.60
2018-01-11T18:45:52.052Z,7.90
2018-01-11T18:48:19.078Z,7.80
2018-01-11T18:50:45.378Z,7.60
2018-01-11T18:53:11.640Z,7.40
2018-01-11T18:55:37.919Z,7.50
2018-01-11T18:58:04.257Z,8.00
2018-01-11T19:00:31.278Z,7.80
2018-01-11T19:02:57.562Z,7.40
2018-01-11T19:05:23.911Z,7.40
2018-01-11T19:07:50.231Z,7.50
2018-01-11T19:10:17.249Z,7.50
2018-01-11T19:12:43.547Z,7.70
2018-01-11T19:15:09.831Z,7.50
2018-01-11T19:17:36.095Z,7.60
2018-01-11T19:20:02.428Z,7.50
2018-01-11T19:22:29.586Z,7.50
2018-01-11T19:24:55.861Z,7.40
2018-01-11T19:27:22.223Z,7.70
2018-01-11T19:29:48.512Z,7.30
2018-01-11T19:32:15.526Z,7.30
2018-01-11T19:34:44.023Z,7.30
2018-01-11T19:37:11.471Z,7.20
2018-01-11T19:39:37.873Z,7.40
2018-01-11T19:42:06.156Z,7.20
2018-01-11T19:44:32.575Z,7.30
2018-01-11T19:46:59.563Z,7.20
2018-01-11T19:49:28.589Z,7.30
2018-01-11T19:51:56.484Z,7.40
2018-01-11T19:54:23.487Z,7.10
2018-01-11T19:56:51.931Z,7.40
2018-01-11T19:59:18.918Z,7.30
2018-01-11T20:01:45.831Z,7.40
2018-01-11T20:04:12.779Z,7.40
2018-01-11T20:06:39.515Z,7.30
2018-01-11T20:09:07.833Z,7.40
2018-01-11T20:11:34.961Z,7.40
2018-01-11T20:14:01.488Z,7.20
2018-01-11T20:16:28.451Z,7.30
2018-01-11T20:18:55.512Z,7.40
2018-01-11T20:21:22.664Z,7.40
2018-01-11T20:23:49.342Z,7.30
2018-01-11T20:26:16.275Z,7.20
2018-01-11T20:28:42.710Z,7.30
2018-01-11T20:31:09.807Z,7.70
2018-01-11T20:33:36.666Z,7.30
2018-01-11T20:36:03.407Z,6.90
2018-01-11T20:38:30.893Z,7.20
2018-01-11T20:40:57.811Z,7.20
2018-01-11T20:43:24.188Z,7.00
2018-01-11T20:45:51.266Z,7.30
2018-01-11T20:48:18.214Z,7.30
2018-01-11T20:50:46.026Z,7.20
2018-01-11T20:53:12.321Z,7.40
2018-01-11T20:55:39.367Z,7.20
2018-01-11T20:58:05.790Z,7.30
2018-01-11T21:00:32.126Z,7.10
2018-01-11T21:02:58.638Z,7.00
2018-01-11T21:05:25.347Z,7.30
2018-01-11T21:07:52.257Z,7.40
2018-01-11T21:10:18.629Z,7.30
2018-01-11T21:12:44.986Z,7.30
2018-01-11T21:15:11.397Z,7.30
2018-01-11T21:17:37.723Z,7.20
2018-01-11T21:20:04.045Z,7.30
2018-01-11T21:22:30.347Z,7.30
2018-01-11T21:24:56.654Z,7.10
2018-01-11T21:27:22.934Z,7.80
2018-01-11T21:29:49.227Z,7.30
2018-01-11T21:32:15.542Z,7.10
2018-01-11T21:34:41.836Z,7.10
2018-01-11T21:37:08.114Z,7.20
2018-01-11T21:39:34.455Z,7.20
2018-01-11T21:42:00.770Z,6.90
2018-01-11T21:44:27.798Z,7.20
2018-01-11T21:46:54.862Z,7.40
2018-01-11T21:49:21.173Z,7.20
2018-01-11T21:51:47.594Z,7.30
2018-01-11T21:54:13.930Z,7.20
2018-01-11T21:56:40.269Z,7.10
2018-01-11T21:59:06.714Z,7.20
2018-01-11T22:01:33.150Z,7.00
2018-01-11T22:03:59.891Z,7.20
2018-01-11T22:06:26.319Z,7.10
2018-01-11T22:08:52.735Z,7.10
2018-01-11T22:11:19.302Z,7.00
2018-01-11T22:13:45.583Z,7.00
2018-01-11T22:16:12.457Z,6.80
2018-01-11T22:18:39.788Z,7.00
2018-01-11T22:21:06.173Z,7.10
2018-01-11T22:23:32.768Z,7.10
2018-01-11T22:25:59.574Z,7.10
2018-01-11T22:28:26.710Z,7.20
2018-01-11T22:30:54.299Z,7.20
2018-01-11T22:33:21.068Z,7.10
2018-01-11T22:35:48.415Z,7.10
2018-01-11T22:38:15.756Z,7.20
2018-01-11T22:40:43.265Z,7.20
2018-01-11T22:43:09.653Z,7.20
2018-01-11T22:45:36.162Z,7.00
2018-01-11T22:48:02.902Z,7.10
2018-01-11T22:50:29.318Z,6.90
2018-01-11T22:52:55.677Z,7.30
2018-01-11T22:55:22.055Z,7.10
2018-01-11T22:57:48.412Z,7.10
2018-01-11T23:00:22.996Z,7.30
2018-01-11T23:02:49.746Z,7.20
2018-01-11T23:05:16.727Z,7.00
2018-01-11T23:07:43.526Z,7.20
2018-01-11T23:10:10.091Z,7.60
2018-01-11T23:12:36.970Z,7.10
2018-01-11T23:15:04.251Z,7.10
2018-01-11T23:17:30.600Z,7.20
2018-01-11T23:19:58.291Z,7.10
2018-01-11T23:22:24.887Z,7.20
2018-01-11T23:24:51.363Z,7.10
2018-01-11T23:27:17.759Z,7.20
2018-01-11T23:29:44.195Z,7.10
2018-01-11T23:32:10.530Z,7.00
2018-01-11T23:34:36.895Z,6.90
2018-01-11T23:37:04.070Z,7.20
2018-01-11T23:39:32.657Z,7.30
2018-01-11T23:41:59.785Z,7.20
2018-01-11T23:44:26.637Z,7.00
2018-01-11T23:46:53.574Z,7.00
2018-01-11T23:49:20.047Z,7.00
2018-01-11T23:51:56.053Z,6.90
2018-01-11T23:54:29.847Z,6.90
2018-01-11T23:56:58.529Z,7.20
2018-01-11T23:59:25.240Z,7.00
